sensor_id;sensor_type;location;lat;lon;timestamp;P1;durP1;ratioP1;P2;durP2;ratioP2
20363;SDS011;10340;53.664;9.908;2022-10-31T00:00:03;8.13;;;7.32;;
20363;SDS011;10340;53.664;9.908;2022-10-31T00:02:32;6.95;;;6.35;;
20363;SDS011;10340;53.664;9.908;2022-10-31T00:04:59;8.30;;;7.38;;
20363;SDS011;10340;53.664;9.908;2022-10-31T00:07:26;7.93;;;7.13;;
20363;SDS011;10340;53.664;9.908;2022-10-31T00:09:54;8.13;;;7.38;;
20363;SDS011;10340;53.664;9.908;2022-10-31T00:12:24;8.23;;;7.43;;
20363;SDS011;10340;53.664;9.908;2022-10-31T00:14:51;7.75;;;7.05;;
20363;SDS011;10340;53.664;9.908;2022-10-31T00:17:18;7.90;;;7.20;;
20363;SDS011;10340;53.664;9.908;2022-10-31T00:19:45;11.88;;;9.85;;
20363;SDS011;10340;53.664;9.908;2022-10-31T00:22:12;9.25;;;8.35;;
20363;SDS011;10340;53.664;9.908;2022-10-31T00:24:42;10.77;;;9.68;;
20363;SDS011;10340;53.664;9.908;2022-10-31T00:27:10;10.45;;;9.35;;
20363;SDS011;10340;53.664;9.908;2022-10-31T00:29:37;9.77;;;8.80;;
20363;SDS011;10340;53.664;9.908;2022-10-31T00:32:04;11.05;;;9.60;;
20363;SDS011;10340;53.664;9.908;2022-10-31T00:34:31;10.57;;;9.57;;
20363;SDS011;10340;53.664;9.908;2022-10-31T00:36:58;13.27;;;10.77;;
20363;SDS011;10340;53.664;9.908;2022-10-31T00:39:25;12.52;;;10.00;;
20363;SDS011;10340;53.664;9.908;2022-10-31T00:41:51;12.43;;;10.93;;
20363;SDS011;10340;53.664;9.908;2022-10-31T00:44:20;11.77;;;10.68;;
20363;SDS011;10340;53.664;9.908;2022-10-31T00:46:46;11.18;;;10.15;;
20363;SDS011;10340;53.664;9.908;2022-10-31T00:49:13;11.10;;;10.07;;
20363;SDS011;10340;53.664;9.908;2022-10-31T00:51:40;10.23;;;8.98;;
20363;SDS011;10340;53.664;9.908;2022-10-31T00:54:07;9.20;;;8.10;;
20363;SDS011;10340;53.664;9.908;2022-10-31T00:56:34;9.30;;;8.40;;
20363;SDS011;10340;53.664;9.908;2022-10-31T00:59:01;9.10;;;8.30;;
20363;SDS011;10340;53.664;9.908;2022-10-31T01:01:29;9.00;;;8.18;;
20363;SDS011;10340;53.664;9.908;2022-10-31T01:03:56;8.02;;;7.30;;
20363;SDS011;10340;53.664;9.908;2022-10-31T01:06:23;8.13;;;7.43;;
20363;SDS011;10340;53.664;9.908;2022-10-31T01:08:49;8.05;;;7.35;;
20363;SDS011;10340;53.664;9.908;2022-10-31T01:11:17;7.93;;;7.22;;
20363;SDS011;10340;53.664;9.908;2022-10-31T01:13:46;8.20;;;7.40;;
20363;SDS011;10340;53.664;9.908;2022-10-31T01:16:15;9.82;;;8.05;;
20363;SDS011;10340;53.664;9.908;2022-10-31T01:18:44;10.02;;;9.10;;
20363;SDS011;10340;53.664;9.908;2022-10-31T01:21:13;9.43;;;8.52;;
20363;SDS011;10340;53.664;9.908;2022-10-31T01:23:41;9.27;;;8.40;;
20363;SDS011;10340;53.664;9.908;2022-10-31T01:26:09;9.82;;;8.82;;
20363;SDS011;10340;53.664;9.908;2022-10-31T01:28:37;9.95;;;8.60;;
20363;SDS011;10340;53.664;9.908;2022-10-31T01:31:06;10.32;;;9.32;;
20363;SDS011;10340;53.664;9.908;2022-10-31T01:33:35;10.25;;;9.25;;
20363;SDS011;10340;53.664;9.908;2022-10-31T01:36:11;10.77;;;8.63;;
20363;SDS011;10340;53.664;9.908;2022-10-31T01:38:40;10.48;;;9.20;;
20363;SDS011;10340;53.664;9.908;2022-10-31T01:41:07;11.73;;;10.50;;
20363;SDS011;10340;53.664;9.908;2022-10-31T01:43:46;10.93;;;9.80;;
20363;SDS011;10340;53.664;9.908;2022-10-31T01:46:16;12.05;;;10.27;;
20363;SDS011;10340;53.664;9.908;2022-10-31T01:48:47;11.23;;;10.05;;
20363;SDS011;10340;53.664;9.908;2022-10-31T01:51:16;12.55;;;11.25;;
20363;SDS011;10340;53.664;9.908;2022-10-31T01:53:46;11.68;;;10.35;;
20363;SDS011;10340;53.664;9.908;2022-10-31T01:56:15;11.20;;;9.55;;
20363;SDS011;10340;53.664;9.908;2022-10-31T01:58:44;12.52;;;10.45;;
20363;SDS011;10340;53.664;9.908;2022-10-31T02:01:12;14.52;;;11.40;;
20363;SDS011;10340;53.664;9.908;2022-10-31T02:03:40;14.80;;;11.68;;
20363;SDS011;10340;53.664;9.908;2022-10-31T02:06:10;14.13;;;11.95;;
20363;SDS011;10340;53.664;9.908;2022-10-31T02:08:45;11.32;;;10.20;;
20363;SDS011;10340;53.664;9.908;2022-10-31T02:11:12;11.07;;;9.98;;
20363;SDS011;10340;53.664;9.908;2022-10-31T02:13:40;10.48;;;9.38;;
20363;SDS011;10340;53.664;9.908;2022-10-31T02:16:08;11.88;;;9.70;;
20363;SDS011;10340;53.664;9.908;2022-10-31T02:18:35;12.90;;;11.10;;
20363;SDS011;10340;53.664;9.908;2022-10-31T02:21:04;10.80;;;9.70;;
20363;SDS011;10340;53.664;9.908;2022-10-31T02:23:49;13.85;;;11.68;;
20363;SDS011;10340;53.664;9.908;2022-10-31T02:26:41;12.45;;;11.13;;
20363;SDS011;10340;53.664;9.908;2022-10-31T02:32:32;11.52;;;9.88;;
20363;SDS011;10340;53.664;9.908;2022-10-31T02:35:08;12.80;;;11.48;;
20363;SDS011;10340;53.664;9.908;2022-10-31T02:37:42;13.93;;;10.73;;
20363;SDS011;10340;53.664;9.908;2022-10-31T02:40:15;12.30;;;10.88;;
20363;SDS011;10340;53.664;9.908;2022-10-31T02:42:52;13.50;;;11.20;;
20363;SDS011;10340;53.664;9.908;2022-10-31T02:45:25;12.57;;;11.10;;
20363;SDS011;10340;53.664;9.908;2022-10-31T02:47:58;15.43;;;13.20;;
20363;SDS011;10340;53.664;9.908;2022-10-31T02:50:30;14.02;;;11.65;;
20363;SDS011;10340;53.664;9.908;2022-10-31T02:53:00;18.42;;;14.55;;
20363;SDS011;10340;53.664;9.908;2022-10-31T02:58:20;17.25;;;14.60;;
20363;SDS011;10340;53.664;9.908;2022-10-31T03:00:51;21.17;;;16.83;;
20363;SDS011;10340;53.664;9.908;2022-10-31T03:03:38;23.58;;;15.93;;
20363;SDS011;10340;53.664;9.908;2022-10-31T03:06:16;26.13;;;17.45;;
20363;SDS011;10340;53.664;9.908;2022-10-31T03:08:50;21.33;;;15.75;;
20363;SDS011;10340;53.664;9.908;2022-10-31T03:11:23;23.23;;;15.95;;
20363;SDS011;10340;53.664;9.908;2022-10-31T03:13:56;20.25;;;15.35;;
20363;SDS011;10340;53.664;9.908;2022-10-31T03:16:28;21.70;;;17.00;;
20363;SDS011;10340;53.664;9.908;2022-10-31T03:19:05;21.80;;;17.55;;
20363;SDS011;10340;53.664;9.908;2022-10-31T03:21:35;19.92;;;16.75;;
20363;SDS011;10340;53.664;9.908;2022-10-31T03:24:05;26.67;;;18.08;;
20363;SDS011;10340;53.664;9.908;2022-10-31T03:26:34;20.85;;;16.77;;
20363;SDS011;10340;53.664;9.908;2022-10-31T03:29:03;23.27;;;16.67;;
20363;SDS011;10340;53.664;9.908;2022-10-31T03:31:34;20.17;;;15.10;;
20363;SDS011;10340;53.664;9.908;2022-10-31T03:34:05;21.45;;;16.42;;
20363;SDS011;10340;53.664;9.908;2022-10-31T03:36:35;20.10;;;15.07;;
20363;SDS011;10340;53.664;9.908;2022-10-31T03:39:05;23.90;;;17.05;;
20363;SDS011;10340;53.664;9.908;2022-10-31T03:41:38;23.45;;;17.83;;
20363;SDS011;10340;53.664;9.908;2022-10-31T03:44:10;22.52;;;17.38;;
20363;SDS011;10340;53.664;9.908;2022-10-31T03:46:41;30.80;;;21.27;;
20363;SDS011;10340;53.664;9.908;2022-10-31T03:49:10;24.92;;;19.65;;
20363;SDS011;10340;53.664;9.908;2022-10-31T03:51:39;27.90;;;19.02;;
20363;SDS011;10340;53.664;9.908;2022-10-31T03:54:11;31.95;;;21.73;;
20363;SDS011;10340;53.664;9.908;2022-10-31T03:56:45;35.67;;;23.38;;
20363;SDS011;10340;53.664;9.908;2022-10-31T03:59:17;45.78;;;22.58;;
20363;SDS011;10340;53.664;9.908;2022-10-31T04:01:51;33.05;;;22.52;;
20363;SDS011;10340;53.664;9.908;2022-10-31T04:04:21;28.63;;;22.23;;
20363;SDS011;10340;53.664;9.908;2022-10-31T04:06:48;36.30;;;23.52;;
20363;SDS011;10340;53.664;9.908;2022-10-31T04:09:16;30.60;;;22.13;;
20363;SDS011;10340;53.664;9.908;2022-10-31T04:11:46;36.38;;;24.80;;
20363;SDS011;10340;53.664;9.908;2022-10-31T04:14:17;36.28;;;24.25;;
20363;SDS011;10340;53.664;9.908;2022-10-31T04:16:44;40.75;;;25.70;;
20363;SDS011;10340;53.664;9.908;2022-10-31T04:19:11;34.60;;;24.70;;
20363;SDS011;10340;53.664;9.908;2022-10-31T04:21:40;31.58;;;22.05;;
20363;SDS011;10340;53.664;9.908;2022-10-31T04:24:09;35.63;;;22.88;;
20363;SDS011;10340;53.664;9.908;2022-10-31T04:26:37;32.25;;;21.35;;
20363;SDS011;10340;53.664;9.908;2022-10-31T04:29:04;29.17;;;20.88;;
20363;SDS011;10340;53.664;9.908;2022-10-31T04:31:30;32.83;;;22.40;;
20363;SDS011;10340;53.664;9.908;2022-10-31T04:33:57;33.20;;;23.33;;
20363;SDS011;10340;53.664;9.908;2022-10-31T04:36:24;30.60;;;23.08;;
20363;SDS011;10340;53.664;9.908;2022-10-31T04:38:52;24.77;;;20.02;;
20363;SDS011;10340;53.664;9.908;2022-10-31T04:41:19;27.35;;;19.92;;
20363;SDS011;10340;53.664;9.908;2022-10-31T04:43:46;34.22;;;23.25;;
20363;SDS011;10340;53.664;9.908;2022-10-31T04:46:13;39.03;;;24.23;;
20363;SDS011;10340;53.664;9.908;2022-10-31T04:48:40;34.75;;;24.30;;
20363;SDS011;10340;53.664;9.908;2022-10-31T04:51:06;39.25;;;25.17;;
20363;SDS011;10340;53.664;9.908;2022-10-31T04:53:33;32.80;;;23.08;;
20363;SDS011;10340;53.664;9.908;2022-10-31T04:56:02;34.35;;;23.52;;
20363;SDS011;10340;53.664;9.908;2022-10-31T04:58:29;36.30;;;25.13;;
20363;SDS011;10340;53.664;9.908;2022-10-31T05:00:56;38.03;;;25.50;;
20363;SDS011;10340;53.664;9.908;2022-10-31T05:03:23;36.10;;;24.33;;
20363;SDS011;10340;53.664;9.908;2022-10-31T05:05:49;38.88;;;25.85;;
20363;SDS011;10340;53.664;9.908;2022-10-31T05:08:16;39.92;;;25.83;;
20363;SDS011;10340;53.664;9.908;2022-10-31T05:10:43;42.65;;;25.92;;
20363;SDS011;10340;53.664;9.908;2022-10-31T05:13:11;36.35;;;24.65;;
20363;SDS011;10340;53.664;9.908;2022-10-31T05:15:39;42.38;;;25.13;;
20363;SDS011;10340;53.664;9.908;2022-10-31T05:18:06;52.40;;;25.52;;
20363;SDS011;10340;53.664;9.908;2022-10-31T05:20:33;52.40;;;26.30;;
20363;SDS011;10340;53.664;9.908;2022-10-31T05:23:00;44.40;;;26.67;;
20363;SDS011;10340;53.664;9.908;2022-10-31T05:25:27;41.42;;;25.83;;
20363;SDS011;10340;53.664;9.908;2022-10-31T05:27:54;39.78;;;24.05;;
20363;SDS011;10340;53.664;9.908;2022-10-31T05:30:24;44.17;;;24.17;;
20363;SDS011;10340;53.664;9.908;2022-10-31T05:32:52;42.80;;;23.05;;
20363;SDS011;10340;53.664;9.908;2022-10-31T05:35:20;37.65;;;22.35;;
20363;SDS011;10340;53.664;9.908;2022-10-31T05:37:48;36.10;;;21.83;;
20363;SDS011;10340;53.664;9.908;2022-10-31T05:40:16;43.20;;;23.27;;
20363;SDS011;10340;53.664;9.908;2022-10-31T05:42:44;50.10;;;22.38;;
20363;SDS011;10340;53.664;9.908;2022-10-31T05:45:12;41.78;;;22.25;;
20363;SDS011;10340;53.664;9.908;2022-10-31T05:47:41;38.08;;;21.05;;
20363;SDS011;10340;53.664;9.908;2022-10-31T05:50:08;30.73;;;20.63;;
20363;SDS011;10340;53.664;9.908;2022-10-31T05:52:36;35.17;;;21.50;;
20363;SDS011;10340;53.664;9.908;2022-10-31T05:55:03;53.67;;;21.73;;
20363;SDS011;10340;53.664;9.908;2022-10-31T05:57:31;36.05;;;20.63;;
20363;SDS011;10340;53.664;9.908;2022-10-31T05:59:59;28.35;;;19.02;;
20363;SDS011;10340;53.664;9.908;2022-10-31T06:02:26;35.35;;;19.88;;
20363;SDS011;10340;53.664;9.908;2022-10-31T06:04:58;32.65;;;20.08;;
20363;SDS011;10340;53.664;9.908;2022-10-31T06:07:25;44.50;;;22.05;;
20363;SDS011;10340;53.664;9.908;2022-10-31T06:09:52;27.63;;;19.52;;
20363;SDS011;10340;53.664;9.908;2022-10-31T06:12:19;28.00;;;18.17;;
20363;SDS011;10340;53.664;9.908;2022-10-31T06:14:46;38.83;;;21.60;;
20363;SDS011;10340;53.664;9.908;2022-10-31T06:17:12;31.45;;;21.25;;
20363;SDS011;10340;53.664;9.908;2022-10-31T06:19:39;36.75;;;21.08;;
20363;SDS011;10340;53.664;9.908;2022-10-31T06:22:07;43.67;;;22.55;;
20363;SDS011;10340;53.664;9.908;2022-10-31T06:24:36;44.45;;;22.60;;
20363;SDS011;10340;53.664;9.908;2022-10-31T06:27:03;42.90;;;23.35;;
20363;SDS011;10340;53.664;9.908;2022-10-31T06:29:30;27.52;;;18.67;;
20363;SDS011;10340;53.664;9.908;2022-10-31T06:31:57;37.45;;;21.75;;
20363;SDS011;10340;53.664;9.908;2022-10-31T06:34:24;41.70;;;21.77;;
20363;SDS011;10340;53.664;9.908;2022-10-31T06:36:51;34.63;;;19.40;;
20363;SDS011;10340;53.664;9.908;2022-10-31T06:39:19;41.45;;;18.83;;
20363;SDS011;10340;53.664;9.908;2022-10-31T06:41:46;44.45;;;22.73;;
20363;SDS011;10340;53.664;9.908;2022-10-31T06:44:14;44.38;;;22.15;;
20363;SDS011;10340;53.664;9.908;2022-10-31T06:46:40;33.65;;;19.90;;
20363;SDS011;10340;53.664;9.908;2022-10-31T06:49:08;36.38;;;19.50;;
20363;SDS011;10340;53.664;9.908;2022-10-31T06:51:35;40.13;;;20.60;;
20363;SDS011;10340;53.664;9.908;2022-10-31T06:54:01;39.85;;;20.35;;
20363;SDS011;10340;53.664;9.908;2022-10-31T06:56:30;42.13;;;18.33;;
20363;SDS011;10340;53.664;9.908;2022-10-31T06:58:57;37.50;;;21.48;;
20363;SDS011;10340;53.664;9.908;2022-10-31T07:01:23;36.03;;;21.48;;
20363;SDS011;10340;53.664;9.908;2022-10-31T07:03:50;37.53;;;20.02;;
20363;SDS011;10340;53.664;9.908;2022-10-31T07:06:17;47.65;;;22.30;;
20363;SDS011;10340;53.664;9.908;2022-10-31T07:08:44;38.88;;;20.27;;
20363;SDS011;10340;53.664;9.908;2022-10-31T07:11:11;38.28;;;20.23;;
20363;SDS011;10340;53.664;9.908;2022-10-31T07:13:39;41.55;;;20.48;;
20363;SDS011;10340;53.664;9.908;2022-10-31T07:16:06;36.78;;;18.85;;
20363;SDS011;10340;53.664;9.908;2022-10-31T07:18:35;26.00;;;17.50;;
20363;SDS011;10340;53.664;9.908;2022-10-31T07:21:02;29.13;;;18.42;;
20363;SDS011;10340;53.664;9.908;2022-10-31T07:23:29;42.65;;;18.27;;
20363;SDS011;10340;53.664;9.908;2022-10-31T07:25:56;27.95;;;18.13;;
20363;SDS011;10340;53.664;9.908;2022-10-31T07:28:23;23.88;;;17.67;;
20363;SDS011;10340;53.664;9.908;2022-10-31T07:30:53;28.38;;;19.60;;
20363;SDS011;10340;53.664;9.908;2022-10-31T07:33:21;31.23;;;18.80;;
20363;SDS011;10340;53.664;9.908;2022-10-31T07:35:48;39.42;;;20.77;;
20363;SDS011;10340;53.664;9.908;2022-10-31T07:38:15;33.03;;;19.95;;
20363;SDS011;10340;53.664;9.908;2022-10-31T07:40:42;37.22;;;19.92;;
20363;SDS011;10340;53.664;9.908;2022-10-31T07:43:09;32.72;;;20.55;;
20363;SDS011;10340;53.664;9.908;2022-10-31T07:45:37;32.92;;;20.13;;
20363;SDS011;10340;53.664;9.908;2022-10-31T07:48:05;32.28;;;19.63;;
20363;SDS011;10340;53.664;9.908;2022-10-31T07:50:33;26.13;;;18.42;;
20363;SDS011;10340;53.664;9.908;2022-10-31T07:53:01;29.23;;;18.80;;
20363;SDS011;10340;53.664;9.908;2022-10-31T07:55:29;24.58;;;15.57;;
20363;SDS011;10340;53.664;9.908;2022-10-31T07:57:57;22.08;;;16.17;;
20363;SDS011;10340;53.664;9.908;2022-10-31T08:00:25;22.60;;;15.27;;
20363;SDS011;10340;53.664;9.908;2022-10-31T08:02:59;19.13;;;15.45;;
20363;SDS011;10340;53.664;9.908;2022-10-31T08:05:28;21.13;;;15.95;;
20363;SDS011;10340;53.664;9.908;2022-10-31T08:07:55;26.75;;;16.25;;
20363;SDS011;10340;53.664;9.908;2022-10-31T08:10:22;24.75;;;15.68;;
20363;SDS011;10340;53.664;9.908;2022-10-31T08:12:54;34.05;;;15.15;;
20363;SDS011;10340;53.664;9.908;2022-10-31T08:15:22;18.98;;;14.50;;
20363;SDS011;10340;53.664;9.908;2022-10-31T08:17:49;20.30;;;13.98;;
20363;SDS011;10340;53.664;9.908;2022-10-31T08:20:16;26.73;;;14.32;;
20363;SDS011;10340;53.664;9.908;2022-10-31T08:22:53;24.50;;;14.25;;
20363;SDS011;10340;53.664;9.908;2022-10-31T08:25:20;35.92;;;14.88;;
20363;SDS011;10340;53.664;9.908;2022-10-31T08:27:48;28.63;;;13.65;;
20363;SDS011;10340;53.664;9.908;2022-10-31T08:30:16;27.10;;;14.27;;
20363;SDS011;10340;53.664;9.908;2022-10-31T08:32:43;19.45;;;13.82;;
20363;SDS011;10340;53.664;9.908;2022-10-31T08:35:10;29.35;;;13.52;;
20363;SDS011;10340;53.664;9.908;2022-10-31T08:37:37;26.83;;;14.32;;
20363;SDS011;10340;53.664;9.908;2022-10-31T08:40:06;29.15;;;13.50;;
20363;SDS011;10340;53.664;9.908;2022-10-31T08:42:33;25.73;;;14.20;;
20363;SDS011;10340;53.664;9.908;2022-10-31T08:45:00;26.20;;;13.93;;
20363;SDS011;10340;53.664;9.908;2022-10-31T08:47:27;27.42;;;14.32;;
20363;SDS011;10340;53.664;9.908;2022-10-31T08:49:54;20.15;;;12.63;;
20363;SDS011;10340;53.664;9.908;2022-10-31T08:52:22;19.42;;;12.00;;
20363;SDS011;10340;53.664;9.908;2022-10-31T08:54:50;18.17;;;14.18;;
20363;SDS011;10340;53.664;9.908;2022-10-31T08:57:18;18.58;;;13.27;;
20363;SDS011;10340;53.664;9.908;2022-10-31T08:59:45;22.52;;;14.85;;
20363;SDS011;10340;53.664;9.908;2022-10-31T09:02:12;29.45;;;14.57;;
20363;SDS011;10340;53.664;9.908;2022-10-31T09:04:38;23.27;;;14.82;;
20363;SDS011;10340;53.664;9.908;2022-10-31T09:07:05;25.48;;;14.70;;
20363;SDS011;10340;53.664;9.908;2022-10-31T09:09:32;20.10;;;14.25;;
20363;SDS011;10340;53.664;9.908;2022-10-31T09:11:59;30.85;;;15.00;;
20363;SDS011;10340;53.664;9.908;2022-10-31T09:14:27;19.55;;;13.65;;
20363;SDS011;10340;53.664;9.908;2022-10-31T09:16:54;23.17;;;15.30;;
20363;SDS011;10340;53.664;9.908;2022-10-31T09:19:21;18.92;;;14.20;;
20363;SDS011;10340;53.664;9.908;2022-10-31T09:21:51;17.48;;;13.20;;
20363;SDS011;10340;53.664;9.908;2022-10-31T09:24:18;21.85;;;15.02;;
20363;SDS011;10340;53.664;9.908;2022-10-31T09:26:45;23.00;;;14.95;;
20363;SDS011;10340;53.664;9.908;2022-10-31T09:29:12;18.67;;;13.93;;
20363;SDS011;10340;53.664;9.908;2022-10-31T09:31:40;21.48;;;13.60;;
20363;SDS011;10340;53.664;9.908;2022-10-31T09:34:07;30.52;;;15.55;;
20363;SDS011;10340;53.664;9.908;2022-10-31T09:36:34;24.73;;;13.98;;
20363;SDS011;10340;53.664;9.908;2022-10-31T09:39:01;27.98;;;14.05;;
20363;SDS011;10340;53.664;9.908;2022-10-31T09:41:28;26.38;;;14.80;;
20363;SDS011;10340;53.664;9.908;2022-10-31T09:44:06;24.65;;;13.35;;
20363;SDS011;10340;53.664;9.908;2022-10-31T09:46:43;26.38;;;14.40;;
20363;SDS011;10340;53.664;9.908;2022-10-31T09:49:30;24.35;;;12.82;;
20363;SDS011;10340;53.664;9.908;2022-10-31T09:52:08;18.67;;;11.82;;
20363;SDS011;10340;53.664;9.908;2022-10-31T09:54:40;17.02;;;10.88;;
20363;SDS011;10340;53.664;9.908;2022-10-31T09:57:13;22.73;;;11.52;;
20363;SDS011;10340;53.664;9.908;2022-10-31T09:59:43;20.88;;;10.90;;
20363;SDS011;10340;53.664;9.908;2022-10-31T10:02:14;20.20;;;11.77;;
20363;SDS011;10340;53.664;9.908;2022-10-31T10:04:49;16.55;;;9.98;;
20363;SDS011;10340;53.664;9.908;2022-10-31T10:07:25;16.88;;;10.98;;
20363;SDS011;10340;53.664;9.908;2022-10-31T10:09:56;17.95;;;11.27;;
20363;SDS011;10340;53.664;9.908;2022-10-31T10:12:28;20.67;;;11.43;;
20363;SDS011;10340;53.664;9.908;2022-10-31T10:18:08;20.73;;;10.98;;
20363;SDS011;10340;53.664;9.908;2022-10-31T10:20:46;18.70;;;10.40;;
20363;SDS011;10340;53.664;9.908;2022-10-31T10:23:27;20.52;;;11.85;;
20363;SDS011;10340;53.664;9.908;2022-10-31T10:26:04;19.65;;;11.15;;
20363;SDS011;10340;53.664;9.908;2022-10-31T10:28:40;18.98;;;10.95;;
20363;SDS011;10340;53.664;9.908;2022-10-31T10:31:10;21.80;;;11.77;;
20363;SDS011;10340;53.664;9.908;2022-10-31T10:33:42;18.80;;;11.13;;
20363;SDS011;10340;53.664;9.908;2022-10-31T10:36:24;19.90;;;10.95;;
20363;SDS011;10340;53.664;9.908;2022-10-31T10:38:57;19.27;;;11.57;;
20363;SDS011;10340;53.664;9.908;2022-10-31T10:41:29;19.63;;;12.10;;
20363;SDS011;10340;53.664;9.908;2022-10-31T10:43:58;17.73;;;11.15;;
20363;SDS011;10340;53.664;9.908;2022-10-31T10:46:25;17.17;;;10.48;;
20363;SDS011;10340;53.664;9.908;2022-10-31T10:49:18;15.00;;;11.25;;
20363;SDS011;10340;53.664;9.908;2022-10-31T10:51:49;19.48;;;11.32;;
20363;SDS011;10340;53.664;9.908;2022-10-31T10:57:14;20.90;;;12.20;;
20363;SDS011;10340;53.664;9.908;2022-10-31T10:59:58;17.63;;;11.02;;
20363;SDS011;10340;53.664;9.908;2022-10-31T11:02:31;21.63;;;12.30;;
20363;SDS011;10340;53.664;9.908;2022-10-31T11:05:01;17.05;;;10.98;;
20363;SDS011;10340;53.664;9.908;2022-10-31T11:07:37;20.30;;;12.70;;
20363;SDS011;10340;53.664;9.908;2022-10-31T11:10:05;18.88;;;11.40;;
20363;SDS011;10340;53.664;9.908;2022-10-31T11:12:38;19.42;;;11.85;;
20363;SDS011;10340;53.664;9.908;2022-10-31T11:15:06;16.85;;;11.00;;
20363;SDS011;10340;53.664;9.908;2022-10-31T11:17:42;15.93;;;11.15;;
20363;SDS011;10340;53.664;9.908;2022-10-31T11:23:04;19.38;;;10.25;;
20363;SDS011;10340;53.664;9.908;2022-10-31T11:25:47;18.13;;;11.50;;
20363;SDS011;10340;53.664;9.908;2022-10-31T11:28:16;17.17;;;10.60;;
20363;SDS011;10340;53.664;9.908;2022-10-31T11:30:44;16.80;;;9.90;;
20363;SDS011;10340;53.664;9.908;2022-10-31T11:33:15;13.07;;;8.93;;
20363;SDS011;10340;53.664;9.908;2022-10-31T11:35:46;15.20;;;9.95;;
20363;SDS011;10340;53.664;9.908;2022-10-31T11:38:15;19.58;;;11.75;;
20363;SDS011;10340;53.664;9.908;2022-10-31T11:40:52;15.18;;;10.27;;
20363;SDS011;10340;53.664;9.908;2022-10-31T11:43:21;16.98;;;10.40;;
20363;SDS011;10340;53.664;9.908;2022-10-31T11:45:49;13.68;;;8.95;;
20363;SDS011;10340;53.664;9.908;2022-10-31T11:48:16;15.10;;;10.10;;
20363;SDS011;10340;53.664;9.908;2022-10-31T11:50:49;12.77;;;10.05;;
20363;SDS011;10340;53.664;9.908;2022-10-31T11:53:18;15.90;;;11.25;;
20363;SDS011;10340;53.664;9.908;2022-10-31T11:55:47;12.43;;;9.30;;
20363;SDS011;10340;53.664;9.908;2022-10-31T11:58:27;12.93;;;9.40;;
20363;SDS011;10340;53.664;9.908;2022-10-31T12:00:55;14.95;;;10.23;;
20363;SDS011;10340;53.664;9.908;2022-10-31T12:03:34;14.80;;;10.48;;
20363;SDS011;10340;53.664;9.908;2022-10-31T12:06:12;12.20;;;9.00;;
20363;SDS011;10340;53.664;9.908;2022-10-31T12:08:43;14.00;;;10.45;;
20363;SDS011;10340;53.664;9.908;2022-10-31T12:11:16;14.07;;;10.18;;
20363;SDS011;10340;53.664;9.908;2022-10-31T12:14:01;13.77;;;9.48;;
20363;SDS011;10340;53.664;9.908;2022-10-31T12:16:36;15.75;;;10.05;;
20363;SDS011;10340;53.664;9.908;2022-10-31T12:19:10;13.65;;;9.65;;
20363;SDS011;10340;53.664;9.908;2022-10-31T12:21:54;13.60;;;8.43;;
20363;SDS011;10340;53.664;9.908;2022-10-31T12:24:33;10.45;;;7.88;;
20363;SDS011;10340;53.664;9.908;2022-10-31T12:27:11;13.68;;;8.48;;
20363;SDS011;10340;53.664;9.908;2022-10-31T12:32:53;7.93;;;6.65;;
20363;SDS011;10340;53.664;9.908;2022-10-31T12:35:38;7.97;;;6.43;;
20363;SDS011;10340;53.664;9.908;2022-10-31T12:41:20;12.52;;;8.13;;
20363;SDS011;10340;53.664;9.908;2022-10-31T12:44:05;9.07;;;6.97;;
20363;SDS011;10340;53.664;9.908;2022-10-31T12:46:44;11.20;;;7.65;;
20363;SDS011;10340;53.664;9.908;2022-10-31T12:49:27;9.35;;;6.97;;
20363;SDS011;10340;53.664;9.908;2022-10-31T12:52:20;8.07;;;7.15;;
20363;SDS011;10340;53.664;9.908;2022-10-31T12:55:06;11.18;;;7.32;;
20363;SDS011;10340;53.664;9.908;2022-10-31T12:57:44;7.90;;;6.60;;
20363;SDS011;10340;53.664;9.908;2022-10-31T13:00:15;9.60;;;6.93;;
20363;SDS011;10340;53.664;9.908;2022-10-31T13:02:45;9.68;;;6.90;;
20363;SDS011;10340;53.664;9.908;2022-10-31T13:05:19;12.60;;;8.23;;
20363;SDS011;10340;53.664;9.908;2022-10-31T13:07:52;9.20;;;7.45;;
20363;SDS011;10340;53.664;9.908;2022-10-31T13:10:24;11.32;;;8.13;;
20363;SDS011;10340;53.664;9.908;2022-10-31T13:13:00;10.63;;;7.72;;
20363;SDS011;10340;53.664;9.908;2022-10-31T13:15:33;10.85;;;7.90;;
20363;SDS011;10340;53.664;9.908;2022-10-31T13:18:12;10.45;;;7.93;;
20363;SDS011;10340;53.664;9.908;2022-10-31T13:20:46;12.13;;;8.95;;
20363;SDS011;10340;53.664;9.908;2022-10-31T13:23:16;11.65;;;8.40;;
20363;SDS011;10340;53.664;9.908;2022-10-31T13:25:49;11.70;;;8.35;;
20363;SDS011;10340;53.664;9.908;2022-10-31T13:28:23;9.25;;;8.07;;
20363;SDS011;10340;53.664;9.908;2022-10-31T13:30:55;16.30;;;8.82;;
20363;SDS011;10340;53.664;9.908;2022-10-31T13:33:23;10.77;;;8.90;;
20363;SDS011;10340;53.664;9.908;2022-10-31T13:36:06;10.25;;;8.98;;
20363;SDS011;10340;53.664;9.908;2022-10-31T13:38:44;19.83;;;13.07;;
20363;SDS011;10340;53.664;9.908;2022-10-31T13:41:21;20.25;;;15.27;;
20363;SDS011;10340;53.664;9.908;2022-10-31T13:44:02;20.33;;;16.35;;
20363;SDS011;10340;53.664;9.908;2022-10-31T13:46:37;20.33;;;16.77;;
20363;SDS011;10340;53.664;9.908;2022-10-31T13:49:21;20.40;;;16.70;;
20363;SDS011;10340;53.664;9.908;2022-10-31T13:51:51;21.27;;;17.60;;
20363;SDS011;10340;53.664;9.908;2022-10-31T13:54:22;23.17;;;17.25;;
20363;SDS011;10340;53.664;9.908;2022-10-31T13:56:57;18.73;;;15.73;;
20363;SDS011;10340;53.664;9.908;2022-10-31T13:59:26;31.35;;;15.95;;
20363;SDS011;10340;53.664;9.908;2022-10-31T14:01:59;21.40;;;16.52;;
20363;SDS011;10340;53.664;9.908;2022-10-31T14:04:30;22.10;;;16.73;;
20363;SDS011;10340;53.664;9.908;2022-10-31T14:07:05;22.15;;;16.48;;
20363;SDS011;10340;53.664;9.908;2022-10-31T14:09:34;20.33;;;16.52;;
20363;SDS011;10340;53.664;9.908;2022-10-31T14:12:04;21.63;;;16.98;;
20363;SDS011;10340;53.664;9.908;2022-10-31T14:14:35;20.27;;;16.02;;
20363;SDS011;10340;53.664;9.908;2022-10-31T14:17:15;20.52;;;15.25;;
20363;SDS011;10340;53.664;9.908;2022-10-31T14:19:55;21.50;;;17.08;;
20363;SDS011;10340;53.664;9.908;2022-10-31T14:22:28;21.90;;;16.40;;
20363;SDS011;10340;53.664;9.908;2022-10-31T14:24:56;19.63;;;16.40;;
20363;SDS011;10340;53.664;9.908;2022-10-31T14:27:33;24.95;;;17.50;;
20363;SDS011;10340;53.664;9.908;2022-10-31T14:30:15;23.85;;;16.67;;
20363;SDS011;10340;53.664;9.908;2022-10-31T14:32:44;22.70;;;16.58;;
20363;SDS011;10340;53.664;9.908;2022-10-31T14:35:15;22.33;;;17.70;;
20363;SDS011;10340;53.664;9.908;2022-10-31T14:37:55;23.92;;;17.05;;
20363;SDS011;10340;53.664;9.908;2022-10-31T14:40:42;26.30;;;17.10;;
20363;SDS011;10340;53.664;9.908;2022-10-31T14:43:38;28.58;;;18.77;;
20363;SDS011;10340;53.664;9.908;2022-10-31T14:46:25;24.80;;;17.90;;
20363;SDS011;10340;53.664;9.908;2022-10-31T14:49:12;24.58;;;17.92;;
20363;SDS011;10340;53.664;9.908;2022-10-31T14:51:47;23.75;;;17.67;;
20363;SDS011;10340;53.664;9.908;2022-10-31T14:54:17;22.63;;;16.60;;
20363;SDS011;10340;53.664;9.908;2022-10-31T14:56:52;21.92;;;16.55;;
20363;SDS011;10340;53.664;9.908;2022-10-31T14:59:23;25.40;;;17.55;;
20363;SDS011;10340;53.664;9.908;2022-10-31T15:01:55;24.42;;;16.42;;
20363;SDS011;10340;53.664;9.908;2022-10-31T15:04:25;23.23;;;16.40;;
20363;SDS011;10340;53.664;9.908;2022-10-31T15:06:59;22.88;;;16.27;;